createdAt,value
2018-05-15T00:01:40.370Z,47.58
2018-05-15T00:04:07.763Z,48.08
2018-05-15T00:06:35.246Z,47.62
2018-05-15T00:09:02.656Z,48.13
2018-05-15T00:11:30.056Z,47.99
2018-05-15T00:13:57.452Z,47.55
2018-05-15T00:16:24.831Z,47.74
2018-05-15T00:18:52.334Z,47.41
2018-05-15T00:21:19.714Z,48.21
2018-05-15T00:23:47.823Z,48.35
2018-05-15T00:26:15.284Z,49.02
2018-05-15T00:28:42.672Z,48.65
2018-05-15T00:31:10.047Z,49.17
2018-05-15T00:33:37.432Z,48.96
2018-05-15T00:36:04.808Z,49.43
2018-05-15T00:38:32.195Z,50.71
2018-05-15T00:40:59.571Z,51.30
2018-05-15T00:43:26.957Z,51.27
2018-05-15T00:45:54.339Z,50.68
2018-05-15T00:48:21.719Z,50.69
2018-05-15T00:50:49.110Z,49.33
2018-05-15T00:53:16.566Z,50.61
2018-05-15T00:55:44.021Z,49.62
2018-05-15T00:58:11.403Z,50.24
2018-05-15T01:00:38.782Z,49.45
2018-05-15T01:03:06.170Z,49.60
2018-05-15T01:05:33.557Z,49.81
2018-05-15T01:08:00.935Z,49.48
2018-05-15T01:10:28.318Z,49.39
2018-05-15T01:12:55.725Z,49.12
2018-05-15T01:15:23.109Z,49.79
2018-05-15T01:17:50.656Z,49.52
2018-05-15T01:20:18.135Z,49.66
2018-05-15T01:22:45.555Z,49.67
2018-05-15T01:25:12.926Z,49.67
2018-05-15T01:27:40.352Z,49.46
2018-05-15T01:30:07.737Z,50.19
2018-05-15T01:32:35.119Z,49.54
2018-05-15T01:35:02.526Z,49.41
2018-05-15T01:37:29.903Z,50.01
2018-05-15T01:39:57.297Z,49.30
2018-05-15T01:42:24.684Z,49.27
2018-05-15T01:44:52.111Z,48.99
2018-05-15T01:47:19.483Z,48.56
2018-05-15T01:49:46.873Z,49.15
2018-05-15T01:52:14.251Z,48.91
2018-05-15T01:54:41.639Z,48.69
2018-05-15T01:57:09.187Z,48.68
2018-05-15T01:59:36.596Z,48.87
2018-05-15T02:02:04.187Z,48.53
2018-05-15T02:04:31.587Z,48.86
2018-05-15T02:06:58.971Z,49.06
2018-05-15T02:09:26.354Z,49.24
2018-05-15T02:11:53.751Z,49.70
2018-05-15T02:14:21.136Z,50.06
2018-05-15T02:16:49.477Z,49.62
2018-05-15T02:19:16.871Z,49.33
2018-05-15T02:21:44.245Z,48.96
2018-05-15T02:24:11.625Z,49.68
2018-05-15T02:26:39.012Z,49.49
2018-05-15T02:29:06.386Z,49.64
2018-05-15T02:31:33.769Z,49.36
2018-05-15T02:34:01.145Z,49.69
2018-05-15T02:36:28.538Z,50.27
2018-05-15T02:38:55.908Z,49.79
2018-05-15T02:41:23.292Z,49.96
2018-05-15T02:43:50.664Z,50.23
2018-05-15T02:46:18.548Z,50.81
2018-05-15T02:48:45.939Z,50.82
2018-05-15T02:51:13.323Z,50.93
2018-05-15T02:53:40.705Z,50.90
2018-05-15T02:56:08.075Z,51.35
2018-05-15T02:58:35.796Z,50.76
2018-05-15T03:01:03.160Z,50.72
2018-05-15T03:03:30.540Z,50.85
2018-05-15T03:05:57.945Z,51.04
2018-05-15T03:08:25.321Z,51.29
2018-05-15T03:10:52.703Z,50.90
2018-05-15T03:13:20.079Z,50.60
2018-05-15T03:15:47.467Z,50.45
2018-05-15T03:18:14.841Z,50.92
2018-05-15T03:20:42.226Z,50.93
2018-05-15T03:23:09.595Z,50.80
2018-05-15T03:25:36.976Z,50.88
2018-05-15T03:28:04.348Z,50.67
2018-05-15T03:30:31.735Z,51.80
2018-05-15T03:32:59.116Z,51.40
2018-05-15T03:35:26.507Z,51.80
2018-05-15T03:37:53.882Z,51.04
2018-05-15T03:40:21.329Z,51.29
2018-05-15T03:42:48.890Z,51.63
2018-05-15T03:45:16.319Z,51.27
2018-05-15T03:47:43.705Z,51.67
2018-05-15T03:50:11.099Z,51.26
2018-05-15T03:52:38.480Z,51.69
2018-05-15T03:55:05.864Z,51.65
2018-05-15T03:57:33.501Z,51.27
2018-05-15T04:00:00.873Z,52.45
2018-05-15T04:02:40.011Z,51.88
2018-05-15T04:05:19.186Z,51.82
2018-05-15T04:08:11.162Z,51.96
2018-05-15T04:10:38.547Z,52.08
2018-05-15T04:13:05.952Z,52.29
2018-05-15T04:15:33.339Z,52.47
2018-05-15T04:18:00.715Z,52.71
2018-05-15T04:20:28.109Z,52.16
2018-05-15T04:22:55.484Z,52.59
2018-05-15T04:25:22.867Z,53.28
2018-05-15T04:27:50.246Z,52.88
2018-05-15T04:30:17.938Z,53.08
2018-05-15T04:32:46.056Z,53.22
2018-05-15T04:35:13.453Z,53.41
2018-05-15T04:37:40.819Z,54.17
2018-05-15T04:40:08.208Z,54.38
2018-05-15T04:42:35.611Z,54.41
2018-05-15T04:45:02.974Z,54.56
2018-05-15T04:47:30.357Z,53.90
2018-05-15T04:49:57.770Z,53.87
2018-05-15T04:52:25.135Z,54.16
2018-05-15T04:54:52.515Z,53.83
2018-05-15T04:57:19.895Z,54.04
2018-05-15T04:59:47.269Z,54.06
2018-05-15T05:02:14.653Z,53.44
2018-05-15T05:04:42.056Z,54.74
2018-05-15T05:07:09.441Z,54.63
2018-05-15T05:09:36.820Z,54.02
2018-05-15T05:12:04.207Z,53.58
2018-05-15T05:14:31.583Z,54.34
2018-05-15T05:16:58.967Z,53.66
2018-05-15T05:19:26.382Z,54.17
2018-05-15T05:21:53.749Z,53.96
2018-05-15T05:24:21.230Z,54.29
2018-05-15T05:26:49.539Z,54.55
2018-05-15T05:29:16.913Z,53.89
2018-05-15T05:31:44.296Z,54.10
2018-05-15T05:34:11.672Z,53.85
2018-05-15T05:36:39.042Z,54.20
2018-05-15T05:39:06.446Z,54.56
2018-05-15T05:41:34.083Z,54.59
2018-05-15T05:44:01.491Z,54.48
2018-05-15T05:46:28.878Z,54.26
2018-05-15T05:48:56.298Z,54.49
2018-05-15T05:51:23.624Z,53.79
2018-05-15T05:53:50.995Z,53.73
2018-05-15T05:56:18.381Z,54.38
2018-05-15T05:58:45.754Z,54.50
2018-05-15T06:01:13.142Z,54.34
2018-05-15T06:03:40.638Z,53.92
2018-05-15T06:06:08.012Z,53.54
2018-05-15T06:08:35.386Z,53.34
2018-05-15T06:11:02.769Z,53.04
2018-05-15T06:13:30.150Z,52.84
2018-05-15T06:15:57.520Z,53.17
2018-05-15T06:18:24.898Z,53.38
2018-05-15T06:20:52.333Z,52.80
2018-05-15T06:23:19.706Z,53.28
2018-05-15T06:25:47.162Z,53.65
2018-05-15T06:28:14.539Z,53.64
2018-05-15T06:30:41.932Z,53.84
2018-05-15T06:33:09.313Z,53.14
2018-05-15T06:35:36.691Z,53.20
2018-05-15T06:38:04.077Z,53.41
2018-05-15T06:40:31.467Z,53.38
2018-05-15T06:42:58.850Z,53.69
2018-05-15T06:45:26.226Z,53.04
2018-05-15T06:47:54.328Z,53.33
2018-05-15T06:50:21.705Z,53.38
2018-05-15T06:52:49.818Z,53.09
2018-05-15T06:55:17.186Z,53.17
2018-05-15T06:57:46.280Z,52.94
2018-05-15T07:00:13.658Z,53.07
2018-05-15T07:02:41.037Z,52.77
2018-05-15T07:05:08.416Z,52.22
2018-05-15T07:07:36.006Z,52.30
2018-05-15T07:10:03.395Z,52.91
2018-05-15T07:12:30.778Z,51.93
2018-05-15T07:14:58.181Z,52.33
2018-05-15T07:17:25.584Z,52.54
2018-05-15T07:19:52.969Z,51.71
2018-05-15T07:22:20.346Z,51.53
2018-05-15T07:24:47.722Z,52.04
2018-05-15T07:27:15.108Z,51.10
2018-05-15T07:29:42.495Z,51.52
2018-05-15T07:32:09.868Z,51.71
2018-05-15T07:34:37.234Z,51.72
2018-05-15T07:37:04.614Z,51.33
2018-05-15T07:39:31.998Z,51.43
2018-05-15T07:42:00.317Z,51.22
2018-05-15T07:44:27.700Z,51.04
2018-05-15T07:46:55.105Z,51.00
2018-05-15T07:49:22.467Z,50.79
2018-05-15T07:51:50.168Z,50.34
2018-05-15T07:54:17.554Z,50.40
2018-05-15T07:56:44.950Z,50.30
2018-05-15T07:59:12.315Z,50.11
2018-05-15T08:01:39.727Z,50.15
2018-05-15T08:04:07.124Z,49.91
2018-05-15T08:06:34.507Z,49.43
2018-05-15T08:09:01.888Z,49.00
2018-05-15T08:11:29.443Z,48.32
2018-05-15T08:13:56.824Z,48.44
2018-05-15T08:16:24.274Z,48.70
2018-05-15T08:18:51.582Z,49.05
2018-05-15T08:21:18.961Z,49.01
2018-05-15T08:23:46.346Z,48.52
2018-05-15T08:26:13.718Z,47.97
2018-05-15T08:28:41.106Z,48.14
2018-05-15T08:31:08.484Z,48.27
2018-05-15T08:33:35.899Z,48.73
2018-05-15T08:36:03.287Z,47.55
2018-05-15T08:38:30.666Z,47.42
2018-05-15T08:40:58.060Z,47.18
2018-05-15T08:43:25.440Z,47.24
2018-05-15T08:45:52.817Z,46.66
2018-05-15T08:48:20.361Z,46.84
2018-05-15T08:50:47.779Z,46.23
2018-05-15T08:53:15.162Z,46.11
2018-05-15T08:55:42.763Z,46.08
2018-05-15T08:58:10.281Z,45.87
2018-05-15T09:00:37.662Z,45.92
2018-05-15T09:03:05.039Z,45.20
2018-05-15T09:05:32.489Z,45.52
2018-05-15T09:07:59.874Z,45.28
2018-05-15T09:10:27.248Z,44.94
2018-05-15T09:12:54.631Z,44.86
2018-05-15T09:15:22.017Z,45.08
2018-05-15T09:17:50.463Z,44.26
2018-05-15T09:20:17.942Z,44.97
2018-05-15T09:22:45.317Z,45.05
2018-05-15T09:25:12.691Z,44.55
2018-05-15T09:27:40.080Z,43.58
2018-05-15T09:30:07.451Z,44.37
2018-05-15T09:32:34.838Z,44.73
2018-05-15T09:35:02.220Z,44.61
2018-05-15T09:37:29.598Z,44.88
2018-05-15T09:39:57.071Z,44.96
2018-05-15T09:42:24.446Z,44.15
2018-05-15T09:44:52.220Z,43.17
2018-05-15T09:47:20.667Z,42.37
2018-05-15T09:49:48.079Z,43.85
2018-05-15T09:52:15.520Z,42.33
2018-05-15T09:54:42.854Z,42.07
2018-05-15T09:57:10.239Z,41.86
2018-05-15T09:59:37.611Z,41.74
2018-05-15T10:02:04.988Z,38.78
2018-05-15T10:04:32.378Z,37.58
2018-05-15T10:06:59.758Z,38.66
2018-05-15T10:09:27.157Z,40.44
2018-05-15T10:11:54.528Z,38.81
2018-05-15T10:14:22.111Z,37.58
2018-05-15T10:16:49.499Z,34.79
2018-05-15T10:19:16.955Z,37.31
2018-05-15T10:21:44.255Z,39.86
2018-05-15T10:24:12.430Z,39.46
2018-05-15T10:26:39.820Z,39.13
2018-05-15T10:29:07.210Z,39.05
2018-05-15T10:31:34.586Z,36.41
2018-05-15T10:34:01.968Z,38.92
2018-05-15T10:36:29.347Z,39.30
2018-05-15T10:38:56.727Z,39.51
2018-05-15T10:41:24.164Z,36.25
2018-05-15T10:43:51.592Z,38.51
2018-05-15T10:46:18.923Z,39.20
2018-05-15T10:48:46.519Z,36.13
2018-05-15T10:51:13.926Z,38.17
2018-05-15T10:53:41.505Z,36.85
2018-05-15T10:56:08.971Z,37.56
2018-05-15T10:58:36.364Z,37.98
2018-05-15T11:01:03.800Z,36.72
2018-05-15T11:03:31.226Z,37.68
2018-05-15T11:05:58.605Z,36.76
2018-05-15T11:08:25.991Z,37.82
2018-05-15T11:10:55.249Z,38.47
2018-05-15T11:13:22.633Z,36.62
2018-05-15T11:15:50.012Z,34.88
2018-05-15T11:18:29.158Z,37.91
2018-05-15T11:21:08.306Z,34.00
2018-05-15T11:23:47.548Z,37.15
2018-05-15T11:26:14.947Z,35.36
2018-05-15T11:28:42.340Z,35.71
2018-05-15T11:31:09.731Z,35.06
2018-05-15T11:33:37.375Z,35.39
2018-05-15T11:36:04.827Z,35.34
2018-05-15T11:38:32.160Z,36.34
2018-05-15T11:40:59.553Z,35.93
2018-05-15T11:43:27.070Z,35.68
2018-05-15T11:45:54.463Z,35.03
2018-05-15T11:48:22.332Z,35.16
2018-05-15T11:50:50.176Z,35.75
2018-05-15T11:53:17.299Z,35.90
2018-05-15T11:55:44.009Z,35.37
2018-05-15T11:58:11.410Z,35.94
2018-05-15T12:00:38.769Z,36.65
2018-05-15T12:03:06.148Z,36.13
2018-05-15T12:05:33.542Z,36.79
2018-05-15T12:08:01.030Z,34.15
2018-05-15T12:10:28.364Z,32.81
2018-05-15T12:12:55.735Z,32.97
2018-05-15T12:15:23.079Z,33.41
2018-05-15T12:17:51.538Z,31.91
2018-05-15T12:20:18.916Z,33.14
2018-05-15T12:22:46.303Z,33.52
2018-05-15T12:25:13.697Z,33.94
2018-05-15T12:27:43.321Z,34.16
2018-05-15T12:30:08.460Z,34.18
2018-05-15T12:32:35.877Z,30.28
2018-05-15T12:35:03.446Z,31.52
2018-05-15T12:37:30.829Z,29.26
2018-05-15T12:39:58.249Z,29.70
2018-05-15T12:42:25.612Z,30.86
2018-05-15T12:44:53.000Z,29.41
2018-05-15T12:47:20.371Z,28.16
2018-05-15T12:49:47.754Z,28.18
2018-05-15T12:52:15.143Z,27.52
2018-05-15T12:54:42.534Z,27.57
2018-05-15T12:57:09.916Z,25.32
2018-05-15T12:59:37.311Z,27.49
2018-05-15T13:02:04.704Z,27.08
2018-05-15T13:04:32.096Z,24.12
2018-05-15T13:06:59.480Z,25.97
2018-05-15T13:09:27.168Z,26.80
2018-05-15T13:11:54.544Z,25.87
2018-05-15T13:14:25.811Z,25.15
2018-05-15T13:16:53.182Z,26.58
2018-05-15T13:19:20.575Z,26.41
2018-05-15T13:21:47.951Z,27.39
2018-05-15T13:24:15.343Z,27.22
2018-05-15T13:26:42.718Z,26.17
2018-05-15T13:29:10.103Z,25.82
2018-05-15T13:31:37.479Z,26.94
2018-05-15T13:34:04.951Z,26.08
2018-05-15T13:36:32.307Z,26.27
2018-05-15T13:38:59.703Z,24.89
2018-05-15T13:41:27.255Z,23.91
2018-05-15T13:43:54.645Z,23.09
2018-05-15T13:46:22.029Z,23.99
2018-05-15T13:48:49.432Z,23.11
2018-05-15T13:51:16.834Z,22.26
2018-05-15T13:53:44.248Z,21.20
2018-05-15T13:56:11.662Z,21.74
2018-05-15T13:58:39.066Z,22.09
2018-05-15T14:01:06.450Z,22.13
2018-05-15T14:03:33.834Z,23.38
2018-05-15T14:06:01.241Z,24.82
2018-05-15T14:08:28.604Z,22.51
2018-05-15T14:10:56.000Z,23.04
2018-05-15T14:13:23.396Z,22.18
2018-05-15T14:15:50.792Z,21.79
2018-05-15T14:18:18.166Z,21.62
2018-05-15T14:20:45.559Z,21.58
2018-05-15T14:23:12.948Z,20.77
2018-05-15T14:25:40.332Z,20.91
2018-05-15T14:28:07.703Z,23.10
2018-05-15T14:30:35.092Z,22.17
2018-05-15T14:33:02.471Z,22.38
2018-05-15T14:35:29.855Z,22.89
2018-05-15T14:37:57.233Z,23.02
2018-05-15T14:40:27.890Z,23.67
2018-05-15T14:43:07.019Z,23.07
2018-05-15T14:45:34.376Z,24.15
2018-05-15T14:48:01.760Z,24.25
2018-05-15T14:50:29.144Z,23.69
2018-05-15T14:52:56.532Z,22.62
2018-05-15T14:55:23.919Z,21.79
2018-05-15T14:57:53.432Z,21.66
2018-05-15T15:00:20.815Z,21.84
2018-05-15T15:02:48.200Z,23.26
2018-05-15T15:05:15.584Z,21.88
2018-05-15T15:07:43.002Z,22.80
2018-05-15T15:10:10.405Z,21.06
2018-05-15T15:12:37.787Z,21.53
2018-05-15T15:15:05.426Z,21.74
2018-05-15T15:17:32.923Z,21.25
2018-05-15T15:20:00.227Z,21.20
2018-05-15T15:22:27.629Z,21.15
2018-05-15T15:24:55.035Z,21.79
2018-05-15T15:27:22.417Z,22.47
2018-05-15T15:29:49.815Z,22.18
2018-05-15T15:32:17.186Z,21.05
2018-05-15T15:34:44.583Z,21.62
2018-05-15T15:37:12.410Z,22.04
2018-05-15T15:39:39.790Z,22.07
2018-05-15T15:42:07.169Z,21.59
2018-05-15T15:44:34.578Z,20.47
2018-05-15T15:47:01.955Z,21.85
2018-05-15T15:49:29.399Z,23.20
2018-05-15T15:51:56.839Z,23.87
2018-05-15T15:54:24.229Z,23.17
2018-05-15T15:56:52.522Z,24.58
2018-05-15T15:59:19.923Z,24.90
2018-05-15T16:01:47.614Z,24.97
2018-05-15T16:04:15.111Z,24.73
2018-05-15T16:06:42.522Z,25.92
2018-05-15T16:09:09.900Z,24.96
2018-05-15T16:11:37.285Z,25.81
2018-05-15T16:14:04.662Z,26.74
2018-05-15T16:16:32.040Z,26.29
2018-05-15T16:18:59.425Z,26.63
2018-05-15T16:21:27.148Z,27.78
2018-05-15T16:23:54.526Z,27.39
2018-05-15T16:26:24.087Z,27.61
2018-05-15T16:28:51.458Z,27.91
2018-05-15T16:31:18.847Z,28.11
2018-05-15T16:33:46.231Z,28.41
2018-05-15T16:36:13.659Z,28.37
2018-05-15T16:38:41.039Z,28.54
2018-05-15T16:41:08.643Z,28.55
2018-05-15T16:43:36.425Z,28.88
2018-05-15T16:46:03.819Z,28.97
2018-05-15T16:48:31.192Z,28.61
2018-05-15T16:50:58.591Z,28.82
2018-05-15T16:53:25.996Z,29.40
2018-05-15T16:55:53.516Z,29.74
2018-05-15T16:58:20.982Z,28.90
2018-05-15T17:00:48.360Z,29.55
2018-05-15T17:03:15.929Z,29.95
2018-05-15T17:05:43.340Z,28.90
2018-05-15T17:08:10.782Z,29.85
2018-05-15T17:10:38.112Z,30.35
2018-05-15T17:13:05.487Z,30.26
2018-05-15T17:15:32.917Z,29.78
2018-05-15T17:18:00.279Z,29.66
2018-05-15T17:20:27.669Z,30.04
2018-05-15T17:22:55.059Z,30.21
2018-05-15T17:25:22.918Z,30.11
2018-05-15T17:27:50.299Z,31.03
2018-05-15T17:30:17.688Z,30.58
2018-05-15T17:32:45.073Z,30.81
2018-05-15T17:35:12.446Z,30.55
2018-05-15T17:37:39.830Z,31.06
2018-05-15T17:40:07.218Z,30.77
2018-05-15T17:42:34.594Z,31.42
2018-05-15T17:45:02.073Z,31.32
2018-05-15T17:47:29.515Z,32.47
2018-05-15T17:49:57.046Z,32.38
2018-05-15T17:52:24.475Z,32.83
2018-05-15T17:54:51.851Z,32.04
2018-05-15T17:57:19.494Z,32.02
2018-05-15T17:59:46.921Z,32.59
2018-05-15T18:02:14.263Z,33.28
2018-05-15T18:04:41.652Z,34.11
2018-05-15T18:07:09.039Z,34.32
2018-05-15T18:09:36.415Z,35.58
2018-05-15T18:12:03.801Z,36.09
2018-05-15T18:14:31.219Z,36.41
2018-05-15T18:16:58.616Z,36.37
2018-05-15T18:19:26.031Z,36.87
2018-05-15T18:21:53.431Z,37.67
2018-05-15T18:24:20.815Z,38.26
2018-05-15T18:26:48.200Z,38.91
2018-05-15T18:29:15.615Z,38.89
2018-05-15T18:31:42.989Z,39.20
2018-05-15T18:34:10.361Z,39.22
2018-05-15T18:36:37.759Z,40.99
2018-05-15T18:39:05.963Z,42.03
2018-05-15T18:41:33.302Z,44.88
2018-05-15T18:44:00.674Z,49.08
2018-05-15T18:46:28.063Z,48.76
2018-05-15T18:48:55.442Z,48.08
2018-05-15T18:51:23.287Z,45.26
2018-05-15T18:53:50.675Z,48.07
2018-05-15T18:56:18.062Z,47.43
2018-05-15T18:58:45.446Z,45.74
2018-05-15T19:01:12.835Z,47.06
2018-05-15T19:03:40.216Z,48.32
2018-05-15T19:06:07.619Z,47.75
2018-05-15T19:08:34.995Z,48.96
2018-05-15T19:11:02.388Z,45.75
2018-05-15T19:13:29.762Z,48.24
2018-05-15T19:15:57.175Z,50.81
2018-05-15T19:18:24.539Z,49.08
2018-05-15T19:20:51.943Z,50.75
2018-05-15T19:23:19.326Z,50.89
2018-05-15T19:25:46.711Z,50.06
2018-05-15T19:28:14.083Z,50.69
2018-05-15T19:30:41.472Z,50.78
2018-05-15T19:33:08.938Z,52.55
2018-05-15T19:35:41.064Z,51.14
2018-05-15T19:38:08.440Z,50.78
2018-05-15T19:40:41.765Z,50.65
2018-05-15T19:43:09.145Z,50.81
2018-05-15T19:45:36.523Z,53.27
2018-05-15T19:48:03.911Z,51.84
2018-05-15T19:50:31.300Z,53.27
2018-05-15T19:52:58.688Z,53.10
2018-05-15T19:55:26.063Z,52.46
2018-05-15T19:57:53.675Z,52.16
2018-05-15T20:00:21.054Z,51.29
2018-05-15T20:02:48.442Z,51.24
2018-05-15T20:05:15.813Z,51.71
2018-05-15T20:07:43.223Z,51.29
2018-05-15T20:10:10.599Z,53.08
2018-05-15T20:12:37.984Z,53.02
2018-05-15T20:15:05.356Z,52.81
2018-05-15T20:17:32.813Z,53.42
2018-05-15T20:20:00.226Z,53.40
2018-05-15T20:22:27.602Z,52.83
2018-05-15T20:24:55.208Z,53.95
2018-05-15T20:27:22.596Z,54.29
2018-05-15T20:29:50.046Z,54.65
2018-05-15T20:32:17.429Z,55.69
2018-05-15T20:34:44.897Z,55.08
2018-05-15T20:37:12.197Z,54.37
2018-05-15T20:39:39.723Z,54.46
2018-05-15T20:42:07.188Z,54.66
2018-05-15T20:44:34.562Z,55.50
2018-05-15T20:47:01.944Z,54.47
2018-05-15T20:49:29.318Z,54.02
2018-05-15T20:51:56.708Z,56.04
2018-05-15T20:54:24.090Z,55.62
2018-05-15T20:56:51.577Z,56.48
2018-05-15T20:59:19.230Z,57.01
2018-05-15T21:01:46.619Z,56.80
2018-05-15T21:04:14.129Z,56.78
2018-05-15T21:06:41.560Z,56.76
2018-05-15T21:09:09.023Z,56.80
2018-05-15T21:11:36.407Z,56.67
2018-05-15T21:14:03.846Z,57.05
2018-05-15T21:16:31.252Z,56.06
2018-05-15T21:18:58.639Z,56.79
2018-05-15T21:21:26.023Z,56.70
2018-05-15T21:23:53.996Z,57.03
2018-05-15T21:26:21.567Z,57.14
2018-05-15T21:28:48.952Z,57.05
2018-05-15T21:31:16.340Z,56.75
2018-05-15T21:33:43.727Z,58.56
2018-05-15T21:36:11.101Z,58.12
2018-05-15T21:38:38.491Z,57.25
2018-05-15T21:41:05.863Z,58.18
2018-05-15T21:43:33.250Z,57.39
2018-05-15T21:46:00.653Z,57.41
2018-05-15T21:48:28.061Z,59.23
2018-05-15T21:50:55.452Z,58.38
2018-05-15T21:53:22.840Z,57.44
2018-05-15T21:55:50.457Z,57.26
2018-05-15T21:58:17.849Z,57.57
2018-05-15T22:00:45.471Z,58.78
2018-05-15T22:03:13.104Z,57.45
2018-05-15T22:05:40.484Z,56.99
2018-05-15T22:08:07.880Z,58.48
2018-05-15T22:10:35.457Z,58.34
2018-05-15T22:13:14.625Z,58.91
2018-05-15T22:15:53.901Z,58.48
2018-05-15T22:18:33.196Z,59.49
2018-05-15T22:21:12.254Z,59.00
2018-05-15T22:23:39.132Z,59.17
2018-05-15T22:26:06.516Z,60.68
2018-05-15T22:28:33.908Z,60.83
2018-05-15T22:31:01.285Z,60.52
2018-05-15T22:33:28.659Z,61.55
2018-05-15T22:35:56.046Z,62.03
2018-05-15T22:38:24.484Z,62.78
2018-05-15T22:40:51.848Z,62.11
2018-05-15T22:43:19.451Z,61.33
2018-05-15T22:45:46.815Z,61.75
2018-05-15T22:48:14.199Z,62.48
2018-05-15T22:50:41.575Z,62.24
2018-05-15T22:53:08.956Z,61.23
2018-05-15T22:55:36.341Z,61.77
2018-05-15T22:58:03.754Z,62.19
2018-05-15T23:00:31.508Z,61.33
2018-05-15T23:02:58.964Z,61.07
2018-05-15T23:05:26.368Z,62.07
2018-05-15T23:07:54.455Z,59.78
2018-05-15T23:10:21.850Z,61.09
2018-05-15T23:12:49.236Z,61.92
2018-05-15T23:15:16.624Z,60.54
2018-05-15T23:17:44.011Z,60.34
2018-05-15T23:20:11.394Z,63.77
2018-05-15T23:22:43.684Z,66.41
2018-05-15T23:25:11.066Z,70.11
2018-05-15T23:27:38.506Z,64.99
2018-05-15T23:30:05.903Z,63.64
2018-05-15T23:32:33.295Z,65.11
2018-05-15T23:35:00.685Z,67.14
2018-05-15T23:37:28.076Z,65.97
2018-05-15T23:39:55.457Z,67.94
2018-05-15T23:42:23.119Z,65.78
2018-05-15T23:44:50.933Z,66.70
2018-05-15T23:47:18.578Z,66.12
2018-05-15T23:49:47.983Z,63.88
2018-05-15T23:52:15.450Z,66.63
2018-05-15T23:54:42.816Z,65.06
2018-05-15T23:57:10.328Z,65.14
2018-05-15T23:59:37.838Z,65.73
